createdAt,value
2022-08-05T00:00:00.598Z,101093
2022-08-05T00:01:20.013Z,101093
2022-08-05T00:02:07.272Z,101093
2022-08-05T00:03:00.307Z,101087
2022-08-05T00:04:00.280Z,101087
2022-08-05T00:05:00.459Z,101087
2022-08-05T00:06:04.777Z,101087
2022-08-05T00:07:00.324Z,101087
2022-08-05T00:08:01.553Z,101096
2022-08-05T00:09:00.996Z,101096
2022-08-05T00:10:00.427Z,101096
2022-08-05T00:11:01.367Z,101096
2022-08-05T00:12:00.290Z,101096
2022-08-05T00:13:00.289Z,101104
2022-08-05T00:14:00.559Z,101104
2022-08-05T00:15:00.291Z,101104
2022-08-05T00:16:00.571Z,101104
2022-08-05T00:17:02.084Z,101104
2022-08-05T00:18:02.541Z,101108
2022-08-05T00:19:00.321Z,101108
2022-08-05T00:20:01.992Z,101108
2022-08-05T00:21:00.294Z,101108
2022-08-05T00:22:00.980Z,101108
2022-08-05T00:23:02.700Z,101111
2022-08-05T00:24:10.184Z,101111
2022-08-05T00:25:00.308Z,101111
2022-08-05T00:26:00.309Z,101111
2022-08-05T00:27:01.008Z,101111
2022-08-05T00:28:00.329Z,101112
2022-08-05T00:29:00.316Z,101112
2022-08-05T00:30:00.456Z,101112
2022-08-05T00:31:04.309Z,101112
2022-08-05T00:32:13.508Z,101112
2022-08-05T00:33:00.358Z,101117
2022-08-05T00:34:56.489Z,101117
2022-08-05T00:35:06.646Z,101117
2022-08-05T00:36:16.322Z,101117
2022-08-05T00:37:11.240Z,101117
2022-08-05T00:38:00.461Z,101124
2022-08-05T00:39:00.372Z,101124
2022-08-05T00:40:00.508Z,101124
2022-08-05T00:41:00.732Z,101124
2022-08-05T00:42:00.319Z,101124
2022-08-05T00:43:01.640Z,101130
2022-08-05T00:44:01.029Z,101130
2022-08-05T00:45:00.546Z,101130
2022-08-05T00:46:00.294Z,101130
2022-08-05T00:47:03.684Z,101130
2022-08-05T00:48:05.658Z,101132
2022-08-05T00:49:00.321Z,101132
2022-08-05T00:50:00.371Z,101132
2022-08-05T00:51:00.306Z,101132
2022-08-05T00:52:00.288Z,101132
2022-08-05T00:53:00.319Z,101136
2022-08-05T00:54:03.017Z,101136
2022-08-05T00:55:00.341Z,101136
2022-08-05T00:56:00.290Z,101136
2022-08-05T00:57:00.310Z,101136
2022-08-05T00:58:00.431Z,101129
2022-08-05T00:59:00.445Z,101129
2022-08-05T01:00:00.726Z,101129
2022-08-05T01:01:00.598Z,101129
2022-08-05T01:02:00.322Z,101129
2022-08-05T01:03:00.327Z,101125
2022-08-05T01:04:00.282Z,101125
2022-08-05T01:05:00.289Z,101125
2022-08-05T01:06:00.577Z,101125
2022-08-05T01:07:00.276Z,101125
2022-08-05T01:08:41.290Z,101119
2022-08-05T01:09:00.281Z,101119
2022-08-05T01:10:00.652Z,101119
2022-08-05T01:11:03.551Z,101119
2022-08-05T01:12:17.892Z,101119
2022-08-05T01:13:13.386Z,101113
2022-08-05T01:14:10.173Z,101113
2022-08-05T01:15:03.900Z,101113
2022-08-05T01:16:02.450Z,101113
2022-08-05T01:17:03.611Z,101113
2022-08-05T01:18:02.456Z,101112
2022-08-05T01:19:07.150Z,101112
2022-08-05T01:20:10.205Z,101112
2022-08-05T01:21:10.183Z,101112
2022-08-05T01:22:10.884Z,101112
2022-08-05T01:23:01.276Z,101124
2022-08-05T01:24:14.123Z,101124
2022-08-05T01:25:04.612Z,101124
2022-08-05T01:26:03.579Z,101124
2022-08-05T01:27:17.810Z,101124
2022-08-05T01:28:10.179Z,101129
2022-08-05T01:29:07.597Z,101129
2022-08-05T01:30:02.100Z,101129
2022-08-05T01:31:03.654Z,101129
2022-08-05T01:32:02.036Z,101129
2022-08-05T01:33:02.195Z,101119
2022-08-05T01:34:10.178Z,101119
2022-08-05T01:35:03.165Z,101119
2022-08-05T01:36:02.053Z,101119
2022-08-05T01:37:04.689Z,101119
2022-08-05T01:38:01.794Z,101120
2022-08-05T01:39:01.205Z,101120
2022-08-05T01:40:01.552Z,101120
2022-08-05T01:41:02.438Z,101120
2022-08-05T01:42:00.824Z,101120
2022-08-05T01:43:01.486Z,101121
2022-08-05T01:44:00.901Z,101121
2022-08-05T01:45:02.254Z,101121
2022-08-05T01:46:07.370Z,101121
2022-08-05T01:47:01.310Z,101121
2022-08-05T01:48:00.680Z,101128
2022-08-05T01:49:00.825Z,101128
2022-08-05T01:50:03.055Z,101128
2022-08-05T01:51:12.401Z,101128
2022-08-05T01:52:01.190Z,101128
2022-08-05T01:53:01.717Z,101126
2022-08-05T01:54:02.129Z,101126
2022-08-05T01:55:01.297Z,101126
2022-08-05T01:56:01.070Z,101126
2022-08-05T01:58:09.366Z,101126
2022-08-05T01:58:29.212Z,101125
2022-08-05T01:59:03.968Z,101125
2022-08-05T02:00:03.328Z,101125
2022-08-05T02:01:01.260Z,101125
2022-08-05T02:02:01.832Z,101125
2022-08-05T02:03:04.161Z,101132
2022-08-05T02:04:00.987Z,101132
2022-08-05T02:05:03.137Z,101132
2022-08-05T02:06:01.061Z,101132
2022-08-05T02:07:00.648Z,101132
2022-08-05T02:08:01.700Z,101132
2022-08-05T02:09:00.762Z,101132
2022-08-05T02:10:01.111Z,101132
2022-08-05T02:11:06.920Z,101132
2022-08-05T02:12:00.262Z,101132
2022-08-05T02:13:02.529Z,101144
2022-08-05T02:14:07.861Z,101144
2022-08-05T02:15:12.348Z,101144
2022-08-05T02:16:06.351Z,101144
2022-08-05T02:17:04.119Z,101144
2022-08-05T02:18:27.730Z,101144
2022-08-05T02:19:07.115Z,101144
2022-08-05T02:20:01.864Z,101144
2022-08-05T02:21:13.253Z,101144
2022-08-05T02:22:10.172Z,101144
2022-08-05T02:23:02.589Z,101147
2022-08-05T02:24:03.523Z,101147
2022-08-05T02:25:03.859Z,101147
2022-08-05T02:26:02.176Z,101147
2022-08-05T02:27:10.082Z,101147
2022-08-05T02:28:01.361Z,101145
2022-08-05T02:29:01.002Z,101145
2022-08-05T02:30:01.155Z,101145
2022-08-05T02:31:04.485Z,101145
2022-08-05T02:32:04.761Z,101145
2022-08-05T02:33:01.237Z,101144
2022-08-05T02:34:02.413Z,101144
2022-08-05T02:35:13.605Z,101144
2022-08-05T02:36:02.029Z,101144
2022-08-05T02:37:02.140Z,101144
2022-08-05T02:38:02.265Z,101149
2022-08-05T02:39:01.865Z,101149
2022-08-05T02:40:01.394Z,101149
2022-08-05T02:41:06.373Z,101149
2022-08-05T02:42:02.165Z,101149
2022-08-05T02:43:01.219Z,101148
2022-08-05T02:44:02.679Z,101148
2022-08-05T02:45:00.768Z,101148
2022-08-05T02:46:00.964Z,101148
2022-08-05T02:47:01.281Z,101148
2022-08-05T02:48:12.328Z,101141
2022-08-05T02:49:00.758Z,101141
2022-08-05T02:50:00.817Z,101141
2022-08-05T02:51:01.450Z,101141
2022-08-05T02:52:04.285Z,101141
2022-08-05T02:53:00.767Z,101143
2022-08-05T02:54:03.436Z,101143
2022-08-05T02:55:01.968Z,101143
2022-08-05T02:56:01.951Z,101143
2022-08-05T02:57:00.959Z,101143
2022-08-05T02:58:11.379Z,101144
2022-08-05T02:59:00.596Z,101144
2022-08-05T03:00:00.612Z,101144
2022-08-05T03:01:01.996Z,101144
2022-08-05T03:02:01.069Z,101144
2022-08-05T03:03:00.640Z,101139
2022-08-05T03:04:02.521Z,101139
2022-08-05T03:05:00.892Z,101139
2022-08-05T03:06:54.538Z,101139
2022-08-05T03:07:00.402Z,101139
2022-08-05T03:08:08.594Z,101146
2022-08-05T03:09:00.661Z,101146
2022-08-05T03:10:00.513Z,101146
2022-08-05T03:11:53.759Z,101146
2022-08-05T03:12:00.364Z,101146
2022-08-05T03:14:03.037Z,101146
2022-08-05T03:15:00.657Z,101146
2022-08-05T03:16:00.281Z,101146
2022-08-05T03:17:00.283Z,101146
2022-08-05T03:18:00.267Z,101152
2022-08-05T03:19:00.434Z,101152
2022-08-05T03:20:00.285Z,101152
2022-08-05T03:21:00.275Z,101152
2022-08-05T03:22:00.271Z,101152
2022-08-05T03:23:00.920Z,101153
2022-08-05T03:24:01.153Z,101153
2022-08-05T03:25:31.443Z,101153
2022-08-05T03:26:04.497Z,101153
2022-08-05T03:27:00.359Z,101153
2022-08-05T03:28:02.225Z,101156
2022-08-05T03:29:00.423Z,101156
2022-08-05T03:30:08.484Z,101156
2022-08-05T03:31:01.444Z,101156
2022-08-05T03:32:00.738Z,101156
2022-08-05T03:33:01.631Z,101157
2022-08-05T03:34:00.426Z,101157
2022-08-05T03:35:01.296Z,101157
2022-08-05T03:36:00.515Z,101157
2022-08-05T03:37:01.204Z,101157
2022-08-05T03:38:01.059Z,101150
2022-08-05T03:39:05.327Z,101150
2022-08-05T03:40:01.655Z,101150
2022-08-05T03:41:00.305Z,101150
2022-08-05T03:42:00.288Z,101150
2022-08-05T03:43:16.001Z,101156
2022-08-05T03:44:11.599Z,101156
2022-08-05T03:45:01.547Z,101156
2022-08-05T03:46:00.854Z,101156
2022-08-05T03:47:00.290Z,101156
2022-08-05T03:48:00.391Z,101153
2022-08-05T03:49:01.867Z,101153
2022-08-05T03:50:00.536Z,101153
2022-08-05T03:52:35.309Z,101153
2022-08-05T03:52:50.622Z,101153
2022-08-05T03:55:34.273Z,101169
2022-08-05T03:55:54.084Z,101169
2022-08-05T03:56:01.143Z,101169
2022-08-05T03:56:17.089Z,101169
2022-08-05T03:57:01.219Z,101169
2022-08-05T03:58:01.335Z,101185
2022-08-05T03:59:01.664Z,101185
2022-08-05T04:00:03.749Z,101185
2022-08-05T04:01:01.441Z,101185
2022-08-05T04:02:01.695Z,101185
2022-08-05T04:03:01.581Z,101185
2022-08-05T04:04:09.643Z,101185
2022-08-05T04:05:01.425Z,101185
2022-08-05T04:06:01.259Z,101185
2022-08-05T04:07:00.592Z,101185
2022-08-05T04:08:02.494Z,101187
2022-08-05T04:09:00.799Z,101187
2022-08-05T04:10:03.097Z,101187
2022-08-05T04:11:00.906Z,101187
2022-08-05T04:12:00.972Z,101187
2022-08-05T04:13:00.360Z,101193
2022-08-05T04:14:00.534Z,101193
2022-08-05T04:15:00.414Z,101193
2022-08-05T04:16:04.224Z,101193
2022-08-05T04:17:02.102Z,101193
2022-08-05T04:18:00.958Z,101196
2022-08-05T04:19:01.364Z,101196
2022-08-05T04:20:00.358Z,101196
2022-08-05T04:21:00.751Z,101196
2022-08-05T04:22:08.135Z,101196
2022-08-05T04:23:00.313Z,101207
2022-08-05T04:24:06.201Z,101207
2022-08-05T04:25:00.747Z,101207
2022-08-05T04:26:01.125Z,101207
2022-08-05T04:27:00.303Z,101207
2022-08-05T04:28:05.499Z,101217
2022-08-05T04:29:00.587Z,101217
2022-08-05T04:30:00.284Z,101217
2022-08-05T04:31:00.788Z,101217
2022-08-05T04:32:00.298Z,101217
2022-08-05T04:33:00.270Z,101227
2022-08-05T04:34:31.549Z,101227
2022-08-05T04:35:00.304Z,101227
2022-08-05T04:36:11.161Z,101227
2022-08-05T04:37:00.829Z,101227
2022-08-05T04:38:01.169Z,101228
2022-08-05T04:39:00.367Z,101228
2022-08-05T04:40:00.267Z,101228
2022-08-05T04:41:00.289Z,101228
2022-08-05T04:42:00.400Z,101228
2022-08-05T04:43:00.382Z,101232
2022-08-05T04:44:00.347Z,101232
2022-08-05T04:45:00.960Z,101232
2022-08-05T04:46:00.355Z,101232
2022-08-05T04:47:08.891Z,101232
2022-08-05T04:48:04.982Z,101231
2022-08-05T04:49:00.268Z,101231
2022-08-05T04:50:01.634Z,101231
2022-08-05T04:51:02.975Z,101231
2022-08-05T04:52:00.738Z,101231
2022-08-05T04:53:00.293Z,101237
2022-08-05T04:54:01.374Z,101237
2022-08-05T04:55:00.291Z,101237
2022-08-05T04:56:33.214Z,101237
2022-08-05T04:57:01.001Z,101237
2022-08-05T04:58:00.279Z,101240
2022-08-05T04:59:00.269Z,101240
2022-08-05T05:00:00.361Z,101240
2022-08-05T05:01:00.379Z,101240
2022-08-05T05:02:07.670Z,101240
2022-08-05T05:03:03.987Z,101243
2022-08-05T05:04:00.293Z,101243
2022-08-05T05:05:02.835Z,101243
2022-08-05T05:06:38.811Z,101243
2022-08-05T05:07:00.280Z,101243
2022-08-05T05:08:02.195Z,101243
2022-08-05T05:09:00.696Z,101243
2022-08-05T05:10:02.042Z,101243
2022-08-05T05:11:00.268Z,101243
2022-08-05T05:12:02.818Z,101243
2022-08-05T05:13:00.484Z,101234
2022-08-05T05:14:00.255Z,101234
2022-08-05T05:15:03.774Z,101234
2022-08-05T05:16:02.321Z,101234
2022-08-05T05:17:00.397Z,101234
2022-08-05T05:18:00.507Z,101233
2022-08-05T05:19:18.577Z,101233
2022-08-05T05:20:00.284Z,101233
2022-08-05T05:21:00.936Z,101233
2022-08-05T05:22:00.311Z,101233
2022-08-05T05:23:08.267Z,101242
2022-08-05T05:24:02.875Z,101242
2022-08-05T05:25:01.263Z,101242
2022-08-05T05:26:00.275Z,101242
2022-08-05T05:27:00.308Z,101242
2022-08-05T05:28:00.299Z,101234
2022-08-05T05:29:00.505Z,101234
2022-08-05T05:30:04.225Z,101234
2022-08-05T05:31:00.280Z,101234
2022-08-05T05:32:00.268Z,101234
2022-08-05T05:33:08.851Z,101237
2022-08-05T05:34:02.039Z,101237
2022-08-05T05:35:00.297Z,101237
2022-08-05T05:36:00.356Z,101237
2022-08-05T05:37:00.314Z,101237
2022-08-05T05:38:01.871Z,101246
2022-08-05T05:39:00.463Z,101246
2022-08-05T05:40:00.371Z,101246
2022-08-05T05:41:00.267Z,101246
2022-08-05T05:42:00.264Z,101246
2022-08-05T05:43:00.723Z,101253
2022-08-05T05:44:00.822Z,101253
2022-08-05T05:45:00.282Z,101253
2022-08-05T05:46:00.302Z,101253
2022-08-05T05:47:04.509Z,101253
2022-08-05T05:48:06.315Z,101260
2022-08-05T05:49:00.309Z,101260
2022-08-05T05:50:01.736Z,101260
2022-08-05T05:51:00.467Z,101260
2022-08-05T05:52:00.298Z,101260
2022-08-05T05:53:00.321Z,101273
2022-08-05T05:54:00.284Z,101273
2022-08-05T05:55:01.088Z,101273
2022-08-05T05:56:01.282Z,101273
2022-08-05T05:57:00.277Z,101273
2022-08-05T05:58:01.905Z,101270
2022-08-05T05:59:03.412Z,101270
2022-08-05T06:00:00.613Z,101270
2022-08-05T06:01:12.202Z,101270
2022-08-05T06:02:00.261Z,101270
2022-08-05T06:03:00.918Z,101275
2022-08-05T06:04:01.550Z,101275
2022-08-05T06:05:00.453Z,101275
2022-08-05T06:06:00.311Z,101275
2022-08-05T06:07:01.646Z,101275
2022-08-05T06:08:02.103Z,101284
2022-08-05T06:09:00.324Z,101284
2022-08-05T06:10:04.656Z,101284
2022-08-05T06:11:00.385Z,101284
2022-08-05T06:12:02.715Z,101284
2022-08-05T06:13:00.290Z,101285
2022-08-05T06:14:00.680Z,101285
2022-08-05T06:15:01.486Z,101285
2022-08-05T06:16:28.358Z,101285
2022-08-05T06:17:01.922Z,101285
2022-08-05T06:18:00.279Z,101294
2022-08-05T06:19:01.050Z,101294
2022-08-05T06:20:00.320Z,101294
2022-08-05T06:21:00.317Z,101294
2022-08-05T06:22:00.339Z,101294
2022-08-05T06:23:00.289Z,101303
2022-08-05T06:24:00.297Z,101303
2022-08-05T06:25:01.439Z,101303
2022-08-05T06:26:13.666Z,101303
2022-08-05T06:27:00.591Z,101303
2022-08-05T06:28:12.623Z,101303
2022-08-05T06:29:03.473Z,101303
2022-08-05T06:30:02.670Z,101303
2022-08-05T06:31:00.294Z,101303
2022-08-05T06:32:00.272Z,101303
2022-08-05T06:33:00.325Z,101314
2022-08-05T06:34:07.612Z,101314
2022-08-05T06:35:00.280Z,101314
2022-08-05T06:36:07.183Z,101314
2022-08-05T06:37:00.281Z,101314
2022-08-05T06:38:04.318Z,101314
2022-08-05T06:39:00.322Z,101314
2022-08-05T06:40:00.461Z,101314
2022-08-05T06:41:00.307Z,101314
2022-08-05T06:42:00.594Z,101314
2022-08-05T06:43:00.283Z,101319
2022-08-05T06:44:00.584Z,101319
2022-08-05T06:45:00.272Z,101319
2022-08-05T06:46:04.024Z,101319
2022-08-05T06:47:02.400Z,101319
2022-08-05T06:48:36.459Z,101321
2022-08-05T06:49:01.251Z,101321
2022-08-05T06:50:04.997Z,101321
2022-08-05T06:51:01.903Z,101321
2022-08-05T06:52:00.281Z,101321
2022-08-05T06:53:11.178Z,101337
2022-08-05T06:54:02.023Z,101337
2022-08-05T06:55:00.293Z,101337
2022-08-05T06:56:00.521Z,101337
2022-08-05T06:57:57.564Z,101337
2022-08-05T06:58:11.609Z,101334
2022-08-05T06:59:00.597Z,101334
2022-08-05T07:00:00.327Z,101334
2022-08-05T07:01:01.100Z,101334
2022-08-05T07:02:00.306Z,101334
2022-08-05T07:03:00.273Z,101336
2022-08-05T07:04:00.368Z,101336
2022-08-05T07:05:00.263Z,101336
2022-08-05T07:06:01.114Z,101336
2022-08-05T07:07:00.259Z,101336
2022-08-05T07:08:00.260Z,101328
2022-08-05T07:09:00.380Z,101328
2022-08-05T07:10:00.288Z,101328
2022-08-05T07:11:00.280Z,101328
2022-08-05T07:12:00.786Z,101328
2022-08-05T07:13:00.293Z,101335
2022-08-05T07:14:00.278Z,101335
2022-08-05T07:15:00.301Z,101335
2022-08-05T07:16:00.895Z,101335
2022-08-05T07:17:58.470Z,101335
2022-08-05T07:18:09.767Z,101332
2022-08-05T07:19:00.375Z,101332
2022-08-05T07:21:04.839Z,101332
2022-08-05T07:22:02.401Z,101332
2022-08-05T07:23:00.317Z,101346
2022-08-05T07:24:01.339Z,101346
2022-08-05T07:25:21.850Z,101346
2022-08-05T07:26:00.267Z,101346
2022-08-05T07:27:00.267Z,101346
2022-08-05T07:28:05.716Z,101347
2022-08-05T07:29:00.288Z,101347
2022-08-05T07:30:28.229Z,101347
2022-08-05T07:31:00.287Z,101347
2022-08-05T07:32:00.287Z,101347
2022-08-05T07:33:01.052Z,101352
2022-08-05T07:34:00.416Z,101352
2022-08-05T07:35:00.355Z,101352
2022-08-05T07:36:19.563Z,101352
2022-08-05T07:37:00.292Z,101352
2022-08-05T07:38:00.305Z,101350
2022-08-05T07:39:01.159Z,101350
2022-08-05T07:40:04.192Z,101350
2022-08-05T07:41:16.596Z,101350
2022-08-05T07:42:13.980Z,101350
2022-08-05T07:43:04.879Z,101362
2022-08-05T07:44:00.665Z,101362
2022-08-05T07:45:00.407Z,101362
2022-08-05T07:46:00.324Z,101362
2022-08-05T07:47:00.310Z,101362
2022-08-05T07:48:00.330Z,101360
2022-08-05T07:49:05.391Z,101360
2022-08-05T07:50:00.283Z,101360
2022-08-05T07:51:00.263Z,101360
2022-08-05T07:52:00.305Z,101360
2022-08-05T07:53:00.306Z,101362
2022-08-05T07:54:01.901Z,101362
2022-08-05T07:55:00.269Z,101362
2022-08-05T07:56:15.721Z,101362
2022-08-05T07:57:14.691Z,101362
2022-08-05T07:58:02.980Z,101367
2022-08-05T07:59:00.314Z,101367
2022-08-05T08:00:00.653Z,101367
2022-08-05T08:01:00.332Z,101367
2022-08-05T08:02:00.364Z,101367
2022-08-05T08:03:14.598Z,101364
2022-08-05T08:04:00.277Z,101364
2022-08-05T08:05:00.697Z,101364
2022-08-05T08:06:00.322Z,101364
2022-08-05T08:07:00.308Z,101364
2022-08-05T08:08:00.752Z,101363
2022-08-05T08:09:00.344Z,101363
2022-08-05T08:10:00.314Z,101363
2022-08-05T08:11:00.293Z,101363
2022-08-05T08:12:09.324Z,101363
2022-08-05T08:13:00.672Z,101370
2022-08-05T08:14:01.133Z,101370
2022-08-05T08:15:02.600Z,101370
2022-08-05T08:16:49.746Z,101370
2022-08-05T08:17:00.278Z,101370
2022-08-05T08:18:01.985Z,101366
2022-08-05T08:19:00.341Z,101366
2022-08-05T08:20:10.866Z,101366
2022-08-05T08:21:03.607Z,101366
2022-08-05T08:22:00.294Z,101366
2022-08-05T08:23:00.296Z,101370
2022-08-05T08:24:04.694Z,101370
2022-08-05T08:25:03.521Z,101370
2022-08-05T08:26:02.853Z,101370
2022-08-05T08:27:00.444Z,101370
2022-08-05T08:28:00.277Z,101369
2022-08-05T08:29:22.229Z,101369
2022-08-05T08:30:06.155Z,101369
2022-08-05T08:31:00.286Z,101369
2022-08-05T08:32:00.326Z,101369
2022-08-05T08:33:08.202Z,101378
2022-08-05T08:34:00.281Z,101378
2022-08-05T08:35:00.276Z,101378
2022-08-05T08:36:29.387Z,101378
2022-08-05T08:37:03.413Z,101378
2022-08-05T08:38:00.291Z,101382
2022-08-05T08:39:01.600Z,101382
2022-08-05T08:40:00.501Z,101382
2022-08-05T08:41:03.259Z,101382
2022-08-05T08:42:02.492Z,101382
2022-08-05T08:45:19.385Z,101386
2022-08-05T08:45:20.397Z,101386
2022-08-05T08:45:22.939Z,101386
2022-08-05T08:46:02.093Z,101386
2022-08-05T08:47:01.665Z,101386
2022-08-05T08:48:07.459Z,101396
2022-08-05T08:50:06.196Z,101396
2022-08-05T08:50:14.208Z,101396
2022-08-05T08:51:23.283Z,101396
2022-08-05T08:52:13.095Z,101396
2022-08-05T08:53:02.334Z,101390
2022-08-05T08:54:00.523Z,101390
2022-08-05T08:55:00.409Z,101390
2022-08-05T08:56:02.976Z,101390
2022-08-05T08:57:00.376Z,101390
2022-08-05T08:58:00.534Z,101392
2022-08-05T08:59:00.359Z,101392
2022-08-05T09:00:00.456Z,101392
2022-08-05T09:01:00.766Z,101392
2022-08-05T09:02:04.045Z,101392
2022-08-05T09:03:00.875Z,101391
2022-08-05T09:04:00.505Z,101391
2022-08-05T09:05:16.270Z,101391
2022-08-05T09:06:07.843Z,101391
2022-08-05T09:07:00.330Z,101391
2022-08-05T09:08:00.304Z,101391
2022-08-05T09:09:01.083Z,101391
2022-08-05T09:10:00.395Z,101391
2022-08-05T09:11:00.495Z,101391
2022-08-05T09:12:08.888Z,101391
2022-08-05T09:13:05.071Z,101388
2022-08-05T09:14:09.460Z,101388
2022-08-05T09:15:05.698Z,101388
2022-08-05T09:16:00.342Z,101388
2022-08-05T09:17:00.474Z,101388
2022-08-05T09:18:00.387Z,101383
2022-08-05T09:19:00.302Z,101383
2022-08-05T09:20:02.641Z,101383
2022-08-05T09:21:00.561Z,101383
2022-08-05T09:22:23.490Z,101383
2022-08-05T09:23:04.849Z,101392
2022-08-05T09:24:02.619Z,101392
2022-08-05T09:25:01.306Z,101392
2022-08-05T09:26:09.343Z,101392
2022-08-05T09:27:00.322Z,101392
2022-08-05T09:28:10.204Z,101397
2022-08-05T09:29:01.400Z,101397
2022-08-05T09:30:06.029Z,101397
2022-08-05T09:31:02.604Z,101397
2022-08-05T09:32:40.408Z,101397
2022-08-05T09:33:00.799Z,101394
2022-08-05T09:34:01.616Z,101394
2022-08-05T09:35:07.971Z,101394
2022-08-05T09:36:02.679Z,101394
2022-08-05T09:37:00.307Z,101394
2022-08-05T09:38:17.471Z,101383
2022-08-05T09:39:02.472Z,101383
2022-08-05T09:40:00.403Z,101383
2022-08-05T09:41:05.023Z,101383
2022-08-05T09:42:01.049Z,101383
2022-08-05T09:43:00.321Z,101386
2022-08-05T09:44:00.284Z,101386
2022-08-05T09:46:05.156Z,101386
2022-08-05T09:46:06.055Z,101386
2022-08-05T09:47:10.356Z,101386
2022-08-05T09:48:00.307Z,101391
2022-08-05T09:49:08.043Z,101391
2022-08-05T09:50:02.536Z,101391
2022-08-05T09:51:00.276Z,101391
2022-08-05T09:52:10.192Z,101391
2022-08-05T09:53:00.320Z,101386
2022-08-05T09:54:00.644Z,101386
2022-08-05T09:55:55.147Z,101386
2022-08-05T09:56:04.543Z,101386
2022-08-05T09:57:01.590Z,101386
2022-08-05T09:58:08.845Z,101383
2022-08-05T09:59:01.561Z,101383
2022-08-05T10:00:07.305Z,101383
2022-08-05T10:01:01.810Z,101383
2022-08-05T10:02:00.370Z,101383
2022-08-05T10:03:07.546Z,101386
2022-08-05T10:04:01.771Z,101386
2022-08-05T10:05:04.483Z,101386
2022-08-05T10:06:05.946Z,101386
2022-08-05T10:07:01.511Z,101386
2022-08-05T10:08:36.707Z,101389
2022-08-05T10:09:10.197Z,101389
2022-08-05T10:10:14.872Z,101389
2022-08-05T10:11:01.908Z,101389
2022-08-05T10:12:18.848Z,101389
2022-08-05T10:13:00.825Z,101385
2022-08-05T10:14:10.202Z,101385
2022-08-05T10:15:10.175Z,101385
2022-08-05T10:16:00.579Z,101385
2022-08-05T10:17:10.169Z,101385
2022-08-05T10:18:10.190Z,101393
2022-08-05T10:19:00.585Z,101393
2022-08-05T10:20:03.613Z,101393
2022-08-05T10:21:08.568Z,101393
2022-08-05T10:22:00.277Z,101393
2022-08-05T10:23:00.730Z,101383
2022-08-05T10:24:01.354Z,101383
2022-08-05T10:25:00.281Z,101383
2022-08-05T10:26:02.311Z,101383
2022-08-05T10:27:01.253Z,101383
2022-08-05T10:28:13.830Z,101388
2022-08-05T10:29:00.474Z,101388
2022-08-05T10:30:07.039Z,101388
2022-08-05T10:32:49.168Z,101388
2022-08-05T10:32:51.664Z,101388
2022-08-05T10:33:02.775Z,101389
2022-08-05T10:34:00.342Z,101389
2022-08-05T10:35:01.159Z,101389
2022-08-05T10:36:00.831Z,101389
2022-08-05T10:37:00.406Z,101389
2022-08-05T10:38:00.899Z,101400
2022-08-05T10:39:10.005Z,101400
2022-08-05T10:40:16.758Z,101400
2022-08-05T10:41:10.253Z,101400
2022-08-05T10:42:02.305Z,101400
2022-08-05T10:43:05.704Z,101407
2022-08-05T10:44:02.357Z,101407
2022-08-05T10:45:00.576Z,101407
2022-08-05T10:46:06.761Z,101407
2022-08-05T10:47:10.186Z,101407
2022-08-05T10:48:31.459Z,101404
2022-08-05T10:49:10.025Z,101404
2022-08-05T10:50:35.413Z,101404
2022-08-05T10:51:01.772Z,101404
2022-08-05T10:52:02.668Z,101404
2022-08-05T10:53:00.379Z,101405
2022-08-05T10:54:01.696Z,101405
2022-08-05T10:55:03.448Z,101405
2022-08-05T10:56:05.474Z,101405
2022-08-05T10:57:00.275Z,101405
2022-08-05T10:58:08.035Z,101408
2022-08-05T10:59:12.122Z,101408
2022-08-05T11:00:13.361Z,101408
2022-08-05T11:01:03.737Z,101408
2022-08-05T11:02:14.184Z,101408
2022-08-05T11:03:25.563Z,101412
2022-08-05T11:04:04.636Z,101412
2022-08-05T11:05:02.893Z,101412
2022-08-05T11:06:15.249Z,101412
2022-08-05T11:07:00.271Z,101412
2022-08-05T11:08:12.908Z,101415
2022-08-05T11:09:10.168Z,101415
2022-08-05T11:10:04.114Z,101415
2022-08-05T11:11:16.517Z,101415
2022-08-05T11:12:00.447Z,101415
2022-08-05T11:13:01.182Z,101417
2022-08-05T11:14:00.687Z,101417
2022-08-05T11:15:19.407Z,101417
2022-08-05T11:16:10.210Z,101417
2022-08-05T11:17:59.485Z,101417
2022-08-05T11:18:11.729Z,101421
2022-08-05T11:20:11.337Z,101421
2022-08-05T11:20:16.603Z,101421
2022-08-05T11:21:00.729Z,101421
2022-08-05T11:22:10.182Z,101421
2022-08-05T11:23:10.543Z,101433
2022-08-05T11:24:14.886Z,101433
2022-08-05T11:26:03.477Z,101433
2022-08-05T11:26:06.073Z,101433
2022-08-05T11:27:10.184Z,101433
2022-08-05T11:28:10.182Z,101439
2022-08-05T11:29:12.700Z,101439
2022-08-05T11:30:00.540Z,101439
2022-08-05T11:31:00.259Z,101439
2022-08-05T11:32:10.186Z,101439
2022-08-05T11:33:20.874Z,101432
2022-08-05T11:34:04.587Z,101432
2022-08-05T11:35:00.409Z,101432
2022-08-05T11:36:08.717Z,101432
2022-08-05T11:37:00.323Z,101432
2022-08-05T11:38:28.420Z,101435
2022-08-05T11:39:00.642Z,101435
2022-08-05T11:40:03.509Z,101435
2022-08-05T11:41:15.471Z,101435
2022-08-05T11:42:02.424Z,101435
2022-08-05T11:43:00.421Z,101440
2022-08-05T11:44:07.283Z,101440
2022-08-05T11:45:01.166Z,101440
2022-08-05T11:46:27.388Z,101440
2022-08-05T11:47:11.241Z,101440
2022-08-05T11:48:06.279Z,101441
2022-08-05T11:49:01.196Z,101441
2022-08-05T11:50:00.333Z,101441
2022-08-05T11:51:00.506Z,101441
2022-08-05T11:52:01.025Z,101441
2022-08-05T11:53:03.248Z,101439
2022-08-05T11:54:00.447Z,101439
2022-08-05T11:55:07.665Z,101439
2022-08-05T11:56:01.165Z,101439
2022-08-05T11:57:01.361Z,101439
2022-08-05T11:58:09.811Z,101444
2022-08-05T11:59:00.274Z,101444
2022-08-05T12:00:00.433Z,101444
2022-08-05T12:01:01.644Z,101444
2022-08-05T12:02:02.933Z,101444
2022-08-05T12:03:10.361Z,101440
2022-08-05T12:04:00.296Z,101440
2022-08-05T12:05:01.121Z,101440
2022-08-05T12:06:02.170Z,101440
2022-08-05T12:07:00.343Z,101440
2022-08-05T12:08:03.758Z,101446
2022-08-05T12:09:02.506Z,101446
2022-08-05T12:10:06.104Z,101446
2022-08-05T12:11:05.486Z,101446
2022-08-05T12:12:00.376Z,101446
2022-08-05T12:13:03.411Z,101441
2022-08-05T12:14:04.629Z,101441
2022-08-05T12:15:00.303Z,101441
2022-08-05T12:16:00.295Z,101441
2022-08-05T12:17:05.442Z,101441
2022-08-05T12:18:03.717Z,101455
2022-08-05T12:19:00.534Z,101455
2022-08-05T12:20:26.488Z,101455
2022-08-05T12:21:10.183Z,101455
2022-08-05T12:22:01.163Z,101455
2022-08-05T12:23:08.067Z,101456
2022-08-05T12:24:04.551Z,101456
2022-08-05T12:25:00.333Z,101456
2022-08-05T12:26:00.277Z,101456
2022-08-05T12:27:00.341Z,101456
2022-08-05T12:28:02.313Z,101448
2022-08-05T12:29:01.467Z,101448
2022-08-05T12:30:03.394Z,101448